Time;durP1;ratioP1;P1;durP2;ratioP2;P2;SDS_P1;SDS_P2;PMS_P1;PMS_P2;Temp;Humidity;BMP_temperature;BMP_pressure;BME280_temperature;BME280_humidity;BME280_pressure;Samples;Min_cycle;Max_cycle;Signal;HPM_P1;HPM_P2
2023/01/26 00:01:13;;;;;;;10.07;7.47;;;1.60;99.90;1.40;101280.00;;;;4782751;29;111925;-69
2023/01/26 00:03:38;;;;;;;13.70;9.63;;;1.80;99.90;1.40;101276.00;;;;4797995;29;87831;-69
2023/01/26 00:06:07;;;;;;;11.07;8.00;;;1.70;99.90;1.40;101279.00;;;;4782246;29;90402;-70
2023/01/26 00:08:53;;;;;;;14.13;7.97;;;1.70;99.90;1.40;101273.00;;;;4779953;29;87843;-69
2023/01/26 00:11:23;;;;;;;15.00;8.77;;;1.70;99.90;1.40;101274.00;;;;4783206;29;88381;-69
2023/01/26 00:13:50;;;;;;;10.33;7.93;;;1.80;99.90;1.40;101265.00;;;;4784824;29;87455;-68
2023/01/26 00:16:15;;;;;;;14.80;10.00;;;1.80;99.90;1.40;101245.00;;;;4781512;29;105221;-69
2023/01/26 00:18:42;;;;;;;10.97;7.40;;;1.70;99.90;1.40;101236.00;;;;4780410;29;109897;-70
2023/01/26 00:21:19;;;;;;;14.17;8.67;;;1.60;99.90;1.40;101238.00;;;;4781512;29;90112;-69
2023/01/26 00:23:46;;;;;;;15.77;9.57;;;1.70;99.90;1.40;101229.00;;;;4783140;29;88927;-69
2023/01/26 00:26:19;;;;;;;13.00;8.70;;;1.60;99.90;1.40;101225.00;;;;4784088;29;87891;-69
2023/01/26 00:28:44;;;;;;;15.90;9.73;;;1.60;99.90;1.40;101223.00;;;;4781952;29;88107;-69
2023/01/26 00:31:20;;;;;;;15.10;8.73;;;1.70;99.90;1.40;101223.00;;;;4784061;29;118888;-70
2023/01/26 00:33:45;;;;;;;16.53;8.07;;;1.70;99.90;1.40;101231.00;;;;4780972;29;108769;-69
2023/01/26 00:36:12;;;;;;;12.00;8.03;;;1.90;99.90;1.40;101222.00;;;;4781212;29;93705;-70
2023/01/26 00:38:38;;;;;;;17.50;9.07;;;1.80;99.90;1.40;101219.00;;;;4781877;29;87759;-72
2023/01/26 00:41:04;;;;;;;10.10;8.07;;;1.80;99.90;1.40;101215.00;;;;4781503;29;87738;-69
2023/01/26 00:43:29;;;;;;;12.13;7.13;;;1.80;99.90;1.40;101205.00;;;;4778104;29;110872;-70
2023/01/26 00:45:55;;;;;;;17.67;8.03;;;2.30;99.90;1.40;101214.00;;;;4776313;29;110082;-69
2023/01/26 00:48:21;;;;;;;16.30;8.03;;;1.70;99.90;1.40;101208.00;;;;4782572;29;108586;-69
2023/01/26 00:50:49;;;;;;;7.60;5.27;;;1.70;99.90;1.30;101207.00;;;;4780924;29;117437;-70
2023/01/26 00:53:15;;;;;;;15.17;8.50;;;1.50;99.90;1.30;101210.00;;;;4776607;29;104209;-70
2023/01/26 00:55:41;;;;;;;23.90;9.80;;;1.60;99.90;1.30;101193.00;;;;4778352;29;88044;-70
2023/01/26 00:58:07;;;;;;;10.90;7.47;;;1.60;99.90;1.30;101195.00;;;;4779607;29;100228;-70
2023/01/26 01:00:36;;;;;;;15.77;9.43;;;1.60;99.90;1.20;101197.00;;;;4782359;29;109791;-70
2023/01/26 01:03:03;;;;;;;15.13;6.70;;;1.70;99.90;1.20;101201.00;;;;4783274;29;88649;-70
2023/01/26 01:05:31;;;;;;;17.90;8.67;;;1.50;99.90;1.20;101198.00;;;;4784483;29;88038;-70
2023/01/26 01:07:57;;;;;;;8.23;7.27;;;1.50;99.90;1.20;101194.00;;;;4780140;29;88034;-70
2023/01/26 01:10:23;;;;;;;14.47;7.40;;;1.50;99.90;1.20;101197.00;;;;4793628;29;118584;-70
2023/01/26 01:12:49;;;;;;;12.30;7.37;;;1.40;99.90;1.20;101198.00;;;;4779910;29;114717;-70
2023/01/26 01:15:15;;;;;;;14.90;8.27;;;1.50;99.90;1.20;101194.00;;;;4777466;29;110429;-70
2023/01/26 01:17:40;;;;;;;20.20;10.13;;;1.50;99.90;1.20;101199.00;;;;4778935;29;109416;-70
2023/01/26 01:20:09;;;;;;;15.00;8.10;;;1.50;99.90;1.20;101194.00;;;;4781657;29;88324;-70
2023/01/26 01:22:35;;;;;;;15.77;8.57;;;1.50;99.90;1.20;101191.00;;;;4780042;29;88492;-70
2023/01/26 01:25:02;;;;;;;14.77;9.40;;;1.50;99.90;1.20;101191.00;;;;4780464;29;94137;-70
2023/01/26 01:27:28;;;;;;;15.53;8.20;;;1.60;99.90;1.20;101189.00;;;;4781481;29;97267;-70
2023/01/26 01:29:53;;;;;;;14.97;9.23;;;1.50;99.90;1.20;101195.00;;;;4780719;29;117971;-70
2023/01/26 01:32:19;;;;;;;12.87;8.33;;;1.50;99.90;1.20;101190.00;;;;4779528;29;115635;-70
2023/01/26 01:34:49;;;;;;;16.20;9.13;;;1.50;99.90;1.30;101200.00;;;;4779807;29;100269;-70
2023/01/26 01:37:16;;;;;;;16.13;8.33;;;1.60;99.90;1.30;101200.00;;;;4779835;29;92857;-70
2023/01/26 01:39:42;;;;;;;12.97;8.37;;;1.60;99.90;1.30;101193.00;;;;4779497;29;109040;-70
2023/01/26 01:42:08;;;;;;;16.93;9.03;;;1.80;99.90;1.30;101196.00;;;;4782935;29;116243;-70
2023/01/26 01:44:36;;;;;;;14.20;8.57;;;1.60;99.90;1.30;101189.00;;;;4786161;29;87898;-71
2023/01/26 01:47:08;;;;;;;20.47;10.83;;;1.50;99.90;1.20;101187.00;;;;4783445;29;87814;-70
2023/01/26 01:49:41;;;;;;;15.43;9.83;;;1.60;99.90;1.20;101184.00;;;;4792513;29;103779;-70
2023/01/26 01:52:27;;;;;;;15.57;8.90;;;1.50;99.90;1.20;101190.00;;;;4782571;29;88510;-70
2023/01/26 01:54:56;;;;;;;18.47;9.13;;;1.60;99.90;1.20;101186.00;;;;4783923;29;88036;-70
2023/01/26 01:57:43;;;;;;;18.87;9.67;;;1.50;99.90;1.20;101184.00;;;;4783440;29;100438;-70
2023/01/26 02:00:17;;;;;;;17.60;8.90;;;2.30;99.90;1.20;101189.00;;;;4782640;29;88849;-70
2023/01/26 02:03:09;;;;;;;21.13;9.13;;;1.50;99.90;1.20;101171.00;;;;4782470;29;88822;-70
2023/01/26 02:05:53;;;;;;;13.90;10.47;;;1.50;99.90;1.20;101174.00;;;;4783552;29;87838;-70
2023/01/26 02:08:24;;;;;;;14.53;8.27;;;1.60;99.90;1.20;101168.00;;;;4794106;29;88152;-70
2023/01/26 02:10:54;;;;;;;14.23;8.77;;;1.10;99.90;1.20;101171.00;;;;4795102;29;110745;-70
2023/01/26 02:13:22;;;;;;;17.40;10.80;;;1.50;99.90;1.20;101168.00;;;;4795746;29;88830;-69
2023/01/26 02:15:50;;;;;;;25.17;11.07;;;1.40;99.90;1.20;101158.00;;;;4779885;29;109493;-70
2023/01/26 02:18:16;;;;;;;17.17;9.93;;;1.50;99.90;1.20;101150.00;;;;4783253;29;87309;-70
2023/01/26 02:20:51;;;;;;;17.83;10.40;;;1.50;99.90;1.20;101154.00;;;;4788574;29;116874;-70
2023/01/26 02:23:29;;;;;;;17.00;10.10;;;1.40;99.90;1.20;101147.00;;;;4792322;29;89252;-70
2023/01/26 02:25:56;;;;;;;17.07;9.83;;;1.50;99.90;1.20;101142.00;;;;4783893;29;88633;-70
2023/01/26 02:28:25;;;;;;;15.43;8.50;;;1.70;99.90;1.20;101133.00;;;;4784450;29;87869;-70
2023/01/26 02:30:52;;;;;;;28.37;13.40;;;1.50;99.90;1.20;101132.00;;;;4780353;29;109266;-70
2023/01/26 02:33:24;;;;;;;13.27;8.40;;;1.60;99.90;1.20;101127.00;;;;4796568;29;97289;-70
2023/01/26 02:35:50;;;;;;;13.23;9.33;;;1.50;99.90;1.20;101119.00;;;;4783608;29;88223;-70
2023/01/26 02:38:18;;;;;;;15.87;9.07;;;1.50;99.90;1.20;101118.00;;;;4782370;29;88177;-70
2023/01/26 02:40:59;;;;;;;16.93;10.23;;;1.50;99.90;1.20;101114.00;;;;4776728;29;88742;-70
2023/01/26 02:43:26;;;;;;;27.90;12.37;;;1.50;99.90;1.20;101118.00;;;;4795697;29;89378;-70
2023/01/26 02:45:52;;;;;;;16.40;9.47;;;1.60;99.90;1.10;101107.00;;;;4791261;29;88227;-69
2023/01/26 02:49:45;;;;;;;24.60;11.10;;;1.50;99.90;1.10;101109.00;;;;4782585;29;109045;-70
2023/01/26 02:51:06;;;;;;;13.50;8.00;;;1.50;99.90;1.10;101122.00;;;;4782528;29;90249;-70
2023/01/26 02:53:32;;;;;;;16.83;9.07;;;1.40;99.90;1.10;101112.00;;;;4783759;29;97129;-70
2023/01/26 02:55:57;;;;;;;19.77;9.30;;;1.40;99.90;1.10;101114.00;;;;4795526;29;87929;-70
2023/01/26 02:58:23;;;;;;;25.47;10.53;;;1.40;99.90;1.20;101106.00;;;;4780911;29;109030;-70
2023/01/26 03:00:49;;;;;;;25.37;11.13;;;1.40;99.90;1.10;101110.00;;;;4782368;29;117826;-70
2023/01/26 03:03:20;;;;;;;25.27;10.80;;;1.40;99.90;1.10;101100.00;;;;4782000;29;116749;-70
2023/01/26 03:05:46;;;;;;;15.60;10.10;;;1.50;99.90;1.10;101096.00;;;;4784348;29;89333;-70
2023/01/26 03:08:11;;;;;;;20.20;10.50;;;1.50;99.90;1.20;101105.00;;;;4783438;29;109288;-70
2023/01/26 03:10:38;;;;;;;18.87;10.50;;;1.50;99.90;1.20;101106.00;;;;4783695;29;118524;-70
2023/01/26 03:13:04;;;;;;;17.13;8.97;;;1.50;99.90;1.20;101090.00;;;;4781504;29;89599;-70
2023/01/26 03:15:41;;;;;;;19.40;10.80;;;1.40;99.90;1.20;101105.00;;;;4781758;29;90356;-70
2023/01/26 03:27:25;;;;;;;20.13;9.83;;;1.50;99.90;1.20;101105.00;;;;4781518;29;87912;-70
2023/01/26 03:29:17;;;;;;;14.93;9.60;;;1.40;99.90;1.10;101099.00;;;;4779487;29;87953;-70
2023/01/26 03:31:43;;;;;;;19.80;9.30;;;1.40;99.90;1.10;101100.00;;;;4779308;29;88663;-70
2023/01/26 03:34:09;;;;;;;11.27;9.50;;;1.50;99.90;1.20;101082.00;;;;4780824;29;87401;-70
2023/01/26 03:36:36;;;;;;;20.37;10.23;;;1.50;99.90;1.20;101085.00;;;;4784490;29;87986;-70
2023/01/26 03:39:03;;;;;;;18.30;8.83;;;1.50;99.90;1.20;101095.00;;;;4782547;29;87902;-71
2023/01/26 03:57:54;;;;;;;19.10;8.97;;;1.50;99.90;1.20;101080.00;;;;4779112;29;87678;-70
2023/01/26 04:00:20;;;;;;;22.43;9.30;;;1.50;99.90;1.20;101064.00;;;;4781319;29;107019;-70
2023/01/26 04:08:25;;;;;;;18.47;9.83;;;1.50;99.90;1.20;101070.00;;;;4780061;29;88922;-70
2023/01/26 04:10:53;;;;;;;16.47;9.53;;;1.60;99.90;1.10;101062.00;;;;4783004;29;87897;-70
2023/01/26 04:21:38;;;;;;;15.87;9.87;;;1.40;99.90;1.00;101046.00;;;;4789934;29;88068;-70
2023/01/26 04:24:12;;;;;;;19.90;11.50;;;1.40;99.90;1.00;101041.00;;;;4780202;29;94585;-69
2023/01/26 04:26:39;;;;;;;19.97;11.13;;;1.40;99.90;1.00;101042.00;;;;4780994;29;88788;-70
2023/01/26 04:29:08;;;;;;;13.57;8.63;;;1.30;99.90;1.00;101047.00;;;;4783645;29;87665;-70
2023/01/26 04:31:34;;;;;;;18.90;9.57;;;1.30;99.90;1.00;101039.00;;;;4782465;29;101490;-70
2023/01/26 04:34:02;;;;;;;16.60;10.57;;;1.40;99.90;1.00;101036.00;;;;4780226;29;88949;-70
2023/01/26 04:36:28;;;;;;;14.50;8.93;;;1.30;99.90;1.00;101033.00;;;;4778988;29;88960;-70
2023/01/26 04:38:55;;;;;;;18.90;8.33;;;1.30;99.90;1.00;101040.00;;;;4781713;29;112869;-69
2023/01/26 04:41:21;;;;;;;15.80;9.07;;;1.30;99.90;1.00;101040.00;;;;4783783;29;101745;-69
2023/01/26 04:43:46;;;;;;;15.67;9.70;;;1.30;99.90;1.00;101032.00;;;;4780679;29;117736;-70
2023/01/26 04:46:12;;;;;;;12.77;7.87;;;1.30;99.90;1.10;101039.00;;;;4781105;29;87816;-70
2023/01/26 04:48:38;;;;;;;20.07;10.63;;;1.40;99.90;1.10;101049.00;;;;4779346;29;108736;-70
2023/01/26 04:51:13;;;;;;;15.80;10.93;;;1.30;99.90;1.10;101041.00;;;;4782959;29;109336;-70
2023/01/26 04:53:39;;;;;;;10.97;8.60;;;1.40;99.90;1.10;101042.00;;;;4782998;29;88283;-70
2023/01/26 04:56:07;;;;;;;12.93;9.20;;;1.50;99.90;1.10;101039.00;;;;4780887;29;87736;-70
2023/01/26 04:58:33;;;;;;;19.67;10.93;;;1.40;99.90;1.10;101051.00;;;;4782651;29;88834;-70
2023/01/26 05:00:59;;;;;;;12.70;9.90;;;2.60;99.90;1.20;101055.00;;;;4780212;29;109055;-70
2023/01/26 05:03:25;;;;;;;20.60;11.00;;;1.50;99.90;1.20;101044.00;;;;4778080;29;118504;-70
2023/01/26 05:05:53;;;;;;;17.97;9.57;;;1.50;99.90;1.20;101063.00;;;;4781530;29;107237;-70
2023/01/26 05:08:20;;;;;;;16.27;9.33;;;1.50;99.90;1.20;101050.00;;;;4779731;29;97164;-70
2023/01/26 05:10:47;;;;;;;12.27;10.17;;;1.50;99.90;1.20;101048.00;;;;4779799;29;101728;-70
2023/01/26 05:13:13;;;;;;;17.77;10.53;;;1.50;99.90;1.20;101051.00;;;;4780960;29;89024;-70
2023/01/26 05:15:39;;;;;;;13.57;8.70;;;1.50;99.90;1.30;101048.00;;;;4781220;29;87894;-70
2023/01/26 05:18:05;;;;;;;17.87;10.27;;;1.50;99.90;1.30;101045.00;;;;4782254;29;87893;-70
2023/01/26 05:20:32;;;;;;;15.20;9.40;;;1.60;99.90;1.30;101041.00;;;;4781877;29;102399;-70
2023/01/26 05:22:58;;;;;;;18.83;9.43;;;1.60;99.90;1.30;101046.00;;;;4781126;29;100582;-70
2023/01/26 05:25:24;;;;;;;17.00;8.77;;;1.60;99.90;1.30;101043.00;;;;4779704;29;118147;-70
2023/01/26 05:27:51;;;;;;;13.17;9.00;;;1.60;99.90;1.20;101034.00;;;;4782792;29;87972;-70
2023/01/26 05:30:17;;;;;;;14.87;8.60;;;1.70;99.90;1.20;101037.00;;;;4780120;29;87764;-70
2023/01/26 05:32:43;;;;;;;12.00;8.97;;;1.60;99.90;1.30;101037.00;;;;4783074;29;92852;-70
2023/01/26 05:35:09;;;;;;;18.60;10.73;;;1.50;99.90;1.30;101041.00;;;;4779064;29;104804;-70
2023/01/26 05:37:35;;;;;;;13.07;9.50;;;1.50;99.90;1.20;101034.00;;;;4778563;29;101097;-70
2023/01/26 05:40:01;;;;;;;12.23;8.47;;;1.50;99.90;1.30;101037.00;;;;4781554;29;87033;-69
2023/01/26 05:42:26;;;;;;;20.47;9.80;;;1.60;99.90;1.30;101035.00;;;;4780719;29;117707;-70
2023/01/26 05:44:52;;;;;;;18.30;9.53;;;1.60;99.90;1.30;101037.00;;;;4777507;29;116945;-69
2023/01/26 05:47:18;;;;;;;17.00;9.23;;;1.60;99.90;1.20;101045.00;;;;4781748;29;110256;-70
2023/01/26 05:49:44;;;;;;;18.67;9.90;;;1.50;99.90;1.20;101039.00;;;;4781128;29;87966;-69
2023/01/26 05:52:20;;;;;;;16.70;8.10;;;1.50;99.90;1.20;101047.00;;;;4779204;29;87978;-70
2023/01/26 05:54:47;;;;;;;13.13;9.30;;;1.50;99.90;1.20;101038.00;;;;4777416;29;111884;-69
2023/01/26 05:57:13;;;;;;;14.50;8.67;;;1.50;99.90;1.30;101028.00;;;;4780338;29;87699;-70
2023/01/26 05:59:39;;;;;;;17.30;8.93;;;1.60;99.90;1.30;101034.00;;;;4782119;29;88030;-69
2023/01/26 06:02:05;;;;;;;13.23;8.83;;;2.30;99.90;1.30;101031.00;;;;4781231;29;88269;-70
2023/01/26 06:04:30;;;;;;;16.13;8.93;;;1.60;99.90;1.30;101036.00;;;;4778860;29;118316;-70
2023/01/26 06:06:59;;;;;;;14.43;9.13;;;1.60;99.90;1.30;101043.00;;;;4779797;29;109744;-70
2023/01/26 06:09:25;;;;;;;18.47;8.87;;;1.60;99.90;1.30;101040.00;;;;4779520;29;87955;-69
2023/01/26 06:11:50;;;;;;;13.43;9.10;;;1.60;99.90;1.30;101035.00;;;;4777462;29;118809;-70
2023/01/26 06:14:16;;;;;;;14.80;8.77;;;1.60;99.90;1.30;101028.00;;;;4778443;29;118637;-70
2023/01/26 06:16:42;;;;;;;16.60;8.27;;;1.60;99.90;1.30;101035.00;;;;4780312;29;108995;-70
2023/01/26 06:19:09;;;;;;;15.67;9.73;;;1.60;99.90;1.30;101044.00;;;;4789795;29;108989;-70
2023/01/26 06:21:36;;;;;;;14.63;9.87;;;1.60;99.90;1.30;101044.00;;;;4778428;29;87972;-70
2023/01/26 06:24:02;;;;;;;19.40;9.87;;;1.60;99.90;1.30;101042.00;;;;4777077;29;99458;-70
2023/01/26 06:26:28;;;;;;;15.77;10.30;;;1.60;99.90;1.30;101040.00;;;;4782132;29;102918;-69
2023/01/26 06:28:54;;;;;;;16.60;10.03;;;1.60;99.90;1.30;101053.00;;;;4778621;29;99068;-70
2023/01/26 06:31:23;;;;;;;18.03;10.33;;;2.10;99.90;1.30;101052.00;;;;4764237;29;98212;-70
2023/01/26 06:33:49;;;;;;;13.27;9.73;;;1.60;99.90;1.30;101048.00;;;;4784098;29;87788;-70
2023/01/26 06:36:15;;;;;;;20.70;8.67;;;1.60;99.90;1.30;101046.00;;;;4783107;29;88703;-70
2023/01/26 06:38:49;;;;;;;12.37;9.07;;;1.60;99.90;1.30;101048.00;;;;4785357;29;87835;-70
2023/01/26 06:41:15;;;;;;;10.53;8.37;;;1.60;99.90;1.30;101049.00;;;;4783263;29;88209;-70
2023/01/26 06:43:46;;;;;;;18.00;8.73;;;1.60;99.90;1.30;101050.00;;;;4780309;29;88963;-70
2023/01/26 06:46:12;;;;;;;15.27;8.43;;;1.60;99.90;1.30;101058.00;;;;4782105;29;89227;-69
2023/01/26 06:48:38;;;;;;;17.73;8.60;;;1.50;99.90;1.30;101055.00;;;;4781280;29;87805;-69
2023/01/26 06:51:55;;;;;;;17.77;11.17;;;1.50;99.90;1.20;101052.00;;;;4780078;29;88369;-70
2023/01/26 06:54:20;;;;;;;18.70;10.97;;;1.60;99.90;1.30;101046.00;;;;4767738;29;87881;-70
2023/01/26 06:56:46;;;;;;;14.13;9.97;;;1.60;99.90;1.30;101046.00;;;;4779316;29;99971;-70
2023/01/26 06:59:13;;;;;;;19.87;9.03;;;1.60;99.90;1.30;101042.00;;;;4777612;29;88214;-70
2023/01/26 07:01:43;;;;;;;16.30;10.40;;;1.60;99.90;1.30;101049.00;;;;4777831;29;88986;-69
2023/01/26 07:04:09;;;;;;;14.63;9.03;;;1.60;99.90;1.20;101052.00;;;;4778216;29;89099;-69
2023/01/26 07:06:35;;;;;;;22.03;10.33;;;1.60;99.90;1.20;101050.00;;;;4779218;29;87889;-69
2023/01/26 07:09:01;;;;;;;17.77;9.33;;;1.60;99.90;1.20;101039.00;;;;4779981;29;87999;-70
2023/01/26 07:11:29;;;;;;;11.17;9.40;;;1.60;99.90;1.20;101035.00;;;;4778040;29;117154;-70
2023/01/26 07:13:55;;;;;;;16.20;10.00;;;1.50;99.90;1.20;101035.00;;;;4778403;29;88737;-69
2023/01/26 07:16:21;;;;;;;14.83;9.47;;;1.60;99.90;1.20;101038.00;;;;4779766;29;88092;-69
2023/01/26 07:18:46;;;;;;;16.13;9.53;;;1.50;99.90;1.20;101042.00;;;;4780506;29;108413;-70
2023/01/26 07:21:19;;;;;;;18.10;10.40;;;1.50;99.90;1.20;101048.00;;;;4779444;29;116665;-69
2023/01/26 07:23:45;;;;;;;13.03;9.93;;;1.50;99.90;1.20;101036.00;;;;4779850;29;87905;-69
2023/01/26 07:26:12;;;;;;;15.47;10.30;;;1.50;99.90;1.20;101046.00;;;;4775499;29;114555;-69
2023/01/26 07:28:37;;;;;;;16.30;10.90;;;1.60;99.90;1.30;101044.00;;;;4779572;29;87981;-69
2023/01/26 07:31:05;;;;;;;18.27;10.60;;;1.60;99.90;1.30;101045.00;;;;4779432;29;117620;-69
2023/01/26 07:33:32;;;;;;;11.83;9.07;;;1.60;99.90;1.30;101041.00;;;;4778298;29;88266;-69
2023/01/26 07:35:59;;;;;;;14.60;8.90;;;1.50;99.90;1.30;101037.00;;;;4781269;29;99951;-69
2023/01/26 07:38:27;;;;;;;16.97;10.10;;;1.60;99.90;1.30;101039.00;;;;4779978;29;87902;-69
2023/01/26 07:40:52;;;;;;;17.63;10.10;;;1.60;99.90;1.30;101036.00;;;;4775219;29;89344;-69
2023/01/26 07:43:18;;;;;;;11.60;8.90;;;2.50;99.90;1.30;101029.00;;;;4778283;29;88048;-69
2023/01/26 07:45:45;;;;;;;15.40;10.07;;;1.60;99.90;1.30;101029.00;;;;4776856;29;113909;-69
2023/01/26 07:48:11;;;;;;;13.70;8.07;;;1.60;99.90;1.30;101034.00;;;;4773792;29;102244;-69
2023/01/26 07:50:37;;;;;;;16.83;8.83;;;1.60;99.90;1.30;101024.00;;;;4778928;29;119351;-69
2023/01/26 07:53:02;;;;;;;13.27;8.40;;;1.70;99.90;1.30;101029.00;;;;4779853;29;116994;-69
2023/01/26 07:55:28;;;;;;;16.70;9.30;;;1.50;99.90;1.30;101028.00;;;;4781782;29;87846;-69
2023/01/26 07:57:54;;;;;;;23.37;9.67;;;2.40;99.90;1.20;101039.00;;;;4780325;29;88441;-70
2023/01/26 08:00:19;;;;;;;11.30;8.43;;;1.60;99.90;1.20;101027.00;;;;4777556;29;114983;-70
2023/01/26 08:02:49;;;;;;;14.10;10.33;;;1.50;99.90;1.20;101026.00;;;;4778985;29;88455;-70
2023/01/26 08:05:15;;;;;;;22.87;10.67;;;1.50;99.90;1.20;101031.00;;;;4777030;29;88247;-69
2023/01/26 08:07:41;;;;;;;19.90;9.00;;;1.50;99.90;1.20;101027.00;;;;4777678;29;109134;-70
2023/01/26 08:10:09;;;;;;;19.33;10.30;;;1.50;99.90;1.20;101031.00;;;;4775842;29;118612;-70
2023/01/26 08:12:36;;;;;;;15.40;11.07;;;1.60;99.90;1.30;101027.00;;;;4779910;29;88442;-69
2023/01/26 08:15:02;;;;;;;9.93;8.07;;;1.60;99.90;1.30;101044.00;;;;4778030;29;88834;-69
2023/01/26 08:17:28;;;;;;;15.60;10.20;;;1.60;99.90;1.30;101041.00;;;;4777143;29;88042;-69
2023/01/26 08:19:54;;;;;;;13.30;8.73;;;1.50;99.90;1.30;101037.00;;;;4774992;29;109386;-69
2023/01/26 08:22:20;;;;;;;13.83;9.67;;;1.60;99.90;1.30;101041.00;;;;4773602;29;117204;-70
2023/01/26 08:24:45;;;;;;;13.50;9.33;;;1.60;99.90;1.30;101036.00;;;;4777376;29;110524;-69
2023/01/26 08:27:11;;;;;;;13.80;8.37;;;1.60;99.90;1.30;101037.00;;;;4775294;29;109473;-70
2023/01/26 08:29:37;;;;;;;17.17;10.57;;;1.60;99.90;1.30;101035.00;;;;4778422;29;102507;-69
2023/01/26 08:32:02;;;;;;;20.50;10.63;;;1.60;99.90;1.30;101036.00;;;;4776374;29;118569;-69
2023/01/26 08:34:28;;;;;;;13.33;8.50;;;1.70;99.90;1.30;101040.00;;;;4778751;29;96120;-69
2023/01/26 08:36:54;;;;;;;13.07;8.07;;;1.60;99.90;1.30;101031.00;;;;4778862;29;99676;-69
2023/01/26 08:39:19;;;;;;;16.63;9.07;;;1.70;99.90;1.30;101031.00;;;;4777935;29;117404;-69
2023/01/26 08:41:46;;;;;;;13.90;9.43;;;1.60;99.90;1.30;101044.00;;;;4780117;29;119189;-69
2023/01/26 08:44:11;;;;;;;12.97;9.57;;;1.60;99.90;1.30;101043.00;;;;4777377;29;111820;-70
2023/01/26 08:46:37;;;;;;;19.80;11.20;;;2.40;99.90;1.40;101038.00;;;;4778852;29;100166;-70
2023/01/26 08:49:03;;;;;;;13.63;8.90;;;1.60;99.90;1.40;101035.00;;;;4778518;29;117747;-69
2023/01/26 08:51:28;;;;;;;10.13;8.10;;;0.70;99.90;1.40;101032.00;;;;4776563;29;116723;-70
2023/01/26 08:53:54;;;;;;;14.67;9.40;;;1.60;99.90;1.40;101043.00;;;;4776142;29;87832;-70
2023/01/26 08:56:20;;;;;;;11.17;9.57;;;1.80;99.90;1.40;101041.00;;;;4778897;29;87037;-70
2023/01/26 08:58:47;;;;;;;18.13;10.27;;;1.70;99.90;1.50;101047.00;;;;4776070;29;88304;-70
2023/01/26 09:01:15;;;;;;;13.13;8.57;;;1.70;99.90;1.50;101053.00;;;;4776622;29;117162;-70
2023/01/26 09:03:42;;;;;;;17.00;10.10;;;1.80;99.90;1.60;101047.00;;;;4777323;29;88991;-70
2023/01/26 09:06:10;;;;;;;22.13;10.43;;;1.90;99.90;1.60;101046.00;;;;4779254;29;87978;-70
2023/01/26 09:08:36;;;;;;;13.60;9.03;;;1.90;99.90;1.70;101053.00;;;;4791713;29;87969;-70
2023/01/26 09:11:05;;;;;;;16.83;9.17;;;2.50;99.90;1.70;101059.00;;;;4776412;29;88921;-70
2023/01/26 09:13:30;;;;;;;10.93;8.07;;;1.90;99.90;1.70;101060.00;;;;4789543;29;88133;-70
2023/01/26 09:15:56;;;;;;;16.20;8.33;;;2.00;99.90;1.70;101059.00;;;;4778903;29;107996;-70
2023/01/26 09:18:22;;;;;;;15.43;9.03;;;1.90;99.90;1.70;101057.00;;;;4775435;29;89393;-69
2023/01/26 09:20:49;;;;;;;11.73;8.87;;;2.10;99.90;1.70;101067.00;;;;4780218;29;116926;-69
2023/01/26 09:23:17;;;;;;;15.67;9.93;;;2.10;99.90;1.70;101049.00;;;;4779360;29;87789;-69
2023/01/26 09:25:43;;;;;;;14.40;9.50;;;1.90;99.90;1.70;101049.00;;;;4779622;29;88333;-70
2023/01/26 09:28:09;;;;;;;13.83;9.23;;;2.00;99.90;1.70;101049.00;;;;4759211;29;110649;-70
2023/01/26 09:30:34;;;;;;;12.53;6.57;;;1.90;99.90;1.60;101049.00;;;;4774938;29;118973;-70
2023/01/26 09:33:03;;;;;;;11.90;9.13;;;2.00;99.90;1.60;101053.00;;;;4777639;29;87979;-69
2023/01/26 09:35:30;;;;;;;7.93;5.67;;;1.90;99.90;1.60;101056.00;;;;4776517;29;87910;-70
2023/01/26 09:37:56;;;;;;;12.27;8.30;;;1.90;99.90;1.60;101061.00;;;;4776347;29;88820;-69
2023/01/26 09:41:26;;;;;;;10.93;7.63;;;1.80;99.90;1.60;101060.00;;;;4774660;29;117825;-68
2023/01/26 09:43:56;;;;;;;11.80;7.60;;;1.90;99.90;1.60;101066.00;;;;4775655;29;89430;-69
2023/01/26 09:46:36;;;;;;;14.53;7.73;;;1.90;99.90;1.70;101064.00;;;;4778503;29;87297;-69
2023/01/26 09:49:11;;;;;;;9.00;7.37;;;2.00;99.90;1.70;101066.00;;;;4774645;29;108526;-69
2023/01/26 09:51:45;;;;;;;10.93;6.20;;;1.90;99.90;1.70;101060.00;;;;4785367;29;88894;-69
2023/01/26 09:54:34;;;;;;;10.17;7.13;;;2.00;99.90;1.70;101065.00;;;;4777263;29;88787;-70
2023/01/26 09:57:10;;;;;;;10.90;6.57;;;2.00;99.90;1.70;101067.00;;;;4776865;29;99122;-69
2023/01/26 09:59:50;;;;;;;10.40;5.93;;;1.90;99.90;1.70;101057.00;;;;4774878;29;87997;-69
2023/01/26 10:02:44;;;;;;;14.67;7.30;;;1.90;99.90;1.70;101058.00;;;;4757717;29;110487;-71
2023/01/26 10:05:40;;;;;;;10.20;6.93;;;2.00;99.90;1.70;101056.00;;;;4792212;29;97815;-70
2023/01/26 10:08:16;;;;;;;10.33;7.27;;;2.10;99.90;1.70;101054.00;;;;4792489;29;101972;-69
2023/01/26 10:10:53;;;;;;;11.07;7.23;;;2.60;99.90;1.70;101051.00;;;;4795190;29;89925;-68
2023/01/26 10:13:22;;;;;;;10.13;6.73;;;1.90;99.90;1.60;101054.00;;;;4794699;29;87638;-68
2023/01/26 10:15:55;;;;;;;10.67;7.53;;;1.90;99.90;1.60;101054.00;;;;4780704;29;87921;-70
2023/01/26 10:18:28;;;;;;;12.33;6.13;;;1.90;99.90;1.60;101042.00;;;;4778623;29;101424;-70
2023/01/26 10:20:57;;;;;;;11.37;6.37;;;1.90;99.90;1.60;101042.00;;;;4778694;29;90165;-70
2023/01/26 10:23:30;;;;;;;11.80;6.53;;;1.90;99.90;1.60;101041.00;;;;4781418;29;89347;-70
2023/01/26 10:26:10;;;;;;;9.67;6.47;;;1.90;99.90;1.60;101050.00;;;;4763724;29;87772;-69
2023/01/26 10:28:36;;;;;;;11.33;6.43;;;1.90;99.90;1.60;101056.00;;;;4778939;29;87731;-68
2023/01/26 10:31:04;;;;;;;10.90;7.33;;;2.00;99.90;1.60;101045.00;;;;4780119;29;88673;-69
2023/01/26 10:33:33;;;;;;;14.57;6.83;;;1.90;99.90;1.50;101051.00;;;;4794877;29;104380;-69
2023/01/26 10:36:05;;;;;;;13.77;7.30;;;1.90;99.90;1.50;101046.00;;;;4794796;29;88140;-69
2023/01/26 10:38:40;;;;;;;12.93;8.00;;;1.90;99.90;1.50;101039.00;;;;4779060;29;87541;-70
2023/01/26 10:41:08;;;;;;;10.30;6.60;;;1.90;99.90;1.50;101046.00;;;;4792319;29;88054;-69
2023/01/26 10:43:48;;;;;;;14.57;7.43;;;1.80;99.90;1.50;101044.00;;;;4778383;29;87939;-68
2023/01/26 10:46:37;;;;;;;11.10;6.07;;;2.60;99.90;1.50;101043.00;;;;4790313;29;88975;-68
2023/01/26 10:49:09;;;;;;;11.57;6.07;;;1.80;99.90;1.50;101026.00;;;;4777364;29;89172;-68
2023/01/26 10:51:37;;;;;;;10.93;6.53;;;2.30;99.90;1.40;101026.00;;;;4779405;29;89029;-71
2023/01/26 10:54:26;;;;;;;10.27;6.17;;;1.60;99.90;1.40;101021.00;;;;4779798;29;110004;-70
2023/01/26 10:56:58;;;;;;;12.90;8.20;;;1.70;99.90;1.40;101021.00;;;;4778646;29;103147;-70
2023/01/26 10:59:37;;;;;;;12.73;6.63;;;1.70;99.90;1.30;101034.00;;;;4791733;29;88195;-70
2023/01/26 11:02:18;;;;;;;11.80;6.90;;;1.70;99.90;1.30;101031.00;;;;4780223;29;88060;-69
2023/01/26 11:05:08;;;;;;;13.93;7.57;;;1.50;99.90;1.30;101004.00;;;;4779637;29;88931;-70
2023/01/26 11:07:40;;;;;;;10.87;8.13;;;1.60;99.90;1.30;101009.00;;;;4774091;29;97855;-69
2023/01/26 11:10:37;;;;;;;10.03;7.33;;;1.60;99.90;1.30;101008.00;;;;4779931;29;88118;-69
2023/01/26 11:13:18;;;;;;;11.37;6.87;;;1.60;99.90;1.30;101017.00;;;;4778740;29;89094;-69
2023/01/26 11:15:58;;;;;;;12.13;6.60;;;1.70;99.90;1.30;101016.00;;;;4777628;29;88685;-68
2023/01/26 11:18:33;;;;;;;12.53;6.40;;;1.60;99.90;1.30;100998.00;;;;4791411;29;100681;-68
2023/01/26 11:21:41;;;;;;;11.20;7.07;;;1.70;99.90;1.30;100994.00;;;;4779575;29;92612;-68
2023/01/26 11:24:22;;;;;;;14.87;7.27;;;1.60;99.90;1.30;100997.00;;;;4772437;29;89212;-69
2023/01/26 11:27:16;;;;;;;10.90;7.37;;;1.50;99.90;1.30;100997.00;;;;4780271;29;110151;-68
2023/01/26 11:30:06;;;;;;;5.83;4.57;;;1.60;99.90;1.30;100999.00;;;;4793274;29;102286;-70
2023/01/26 11:32:54;;;;;;;12.03;6.23;;;1.50;99.90;1.20;100994.00;;;;4778205;29;87871;-69
2023/01/26 11:36:01;;;;;;;13.93;7.83;;;1.70;99.90;1.30;100992.00;;;;4777586;29;87825;-69
2023/01/26 11:39:00;;;;;;;11.93;7.17;;;1.70;99.90;1.30;100990.00;;;;4770318;29;108670;-68
2023/01/26 11:42:13;;;;;;;8.27;6.13;;;1.60;99.90;1.30;100992.00;;;;4781059;29;88958;-69